Time;durP1;ratioP1;P1;durP2;ratioP2;P2;SDS_P1;SDS_P2;PMS_P1;PMS_P2;Temp;Humidity;BMP_temperature;BMP_pressure;BME280_temperature;BME280_humidity;BME280_pressure;Samples;Min_cycle;Max_cycle;Signal;HPM_P1;HPM_P2
2022/06/22 00:00:35;;;;;;;9.77;8.23;;;12.40;99.90;;;;;;5073732;28;20044;-59
2022/06/22 00:03:03;;;;;;;7.88;7.05;;;12.50;99.90;;;;;;5045243;28;20048;-59
2022/06/22 00:05:36;;;;;;;12.32;7.15;;;12.10;99.90;;;;;;5064023;28;20053;-59
2022/06/22 00:08:06;;;;;;;15.60;7.47;;;12.10;99.90;;;;;;5083382;28;20067;-59
2022/06/22 00:10:33;;;;;;;;;;;11.90;99.90;;;;;;5060942;28;20625;-59
2022/06/22 00:13:00;;;;;;;12.27;10.75;;;11.80;99.90;;;;;;5054370;28;19920;-59
2022/06/22 00:15:35;;;;;;;13.82;9.95;;;11.60;99.90;;;;;;5052116;28;20068;-59
2022/06/22 00:18:03;;;;;;;12.90;8.90;;;11.60;99.90;;;;;;5082305;28;20563;-59
2022/06/22 00:20:32;;;;;;;13.38;9.38;;;11.50;99.90;;;;;;5073507;28;20045;-59
2022/06/22 00:23:20;;;;;;;15.50;8.53;;;11.50;99.90;;;;;;5069262;28;20049;-59
2022/06/22 00:25:46;;;;;;;14.20;10.43;;;11.50;99.90;;;;;;5040107;28;20153;-59
2022/06/22 00:28:34;;;;;;;14.45;10.07;;;11.60;99.90;;;;;;5045103;28;20139;-59
2022/06/22 00:31:38;;;;;;;12.80;8.32;;;11.80;99.90;;;;;;5062363;28;20052;-59
2022/06/22 00:34:13;;;;;;;10.30;8.15;;;11.80;99.90;;;;;;5042837;28;20052;-59
2022/06/22 00:36:57;;;;;;;11.32;7.28;;;11.70;99.90;;;;;;5064266;28;20079;-59
2022/06/22 00:39:26;;;;;;;10.43;7.40;;;11.50;99.90;;;;;;5076054;28;20132;-59
2022/06/22 00:41:58;;;;;;;10.10;7.75;;;11.30;99.90;;;;;;5056008;28;20055;-59
2022/06/22 00:44:30;;;;;;;7.93;7.15;;;11.30;99.90;;;;;;5064644;28;20041;-59
2022/06/22 00:47:09;;;;;;;8.93;7.25;;;11.20;99.90;;;;;;5039085;28;20405;-59
2022/06/22 00:49:36;;;;;;;10.15;8.23;;;11.30;99.90;;;;;;5044216;28;20045;-59
2022/06/22 00:52:07;;;;;;;9.75;8.00;;;11.30;99.90;;;;;;5079721;28;20585;-59
2022/06/22 00:54:34;;;;;;;12.27;9.45;;;11.50;99.90;;;;;;5070943;28;20049;-59
2022/06/22 00:57:11;;;;;;;8.63;7.72;;;11.40;99.90;;;;;;5054192;28;20057;-59
2022/06/22 00:59:45;;;;;;;12.00;9.52;;;11.30;99.90;;;;;;5066939;28;20044;-59
2022/06/22 01:02:38;;;;;;;13.15;10.25;;;11.30;99.90;;;;;;5048487;28;20052;-59
2022/06/22 01:05:32;;;;;;;18.23;12.45;;;10.90;99.90;;;;;;5053071;28;20512;-59
2022/06/22 01:08:00;;;;;;;16.65;12.77;;;10.80;99.90;;;;;;5064577;28;20048;-59
2022/06/22 01:10:37;;;;;;;17.30;12.27;;;10.70;99.90;;;;;;5054871;28;20146;-59
2022/06/22 01:13:25;;;;;;;15.95;13.15;;;10.70;99.90;;;;;;5047471;28;20048;-59
2022/06/22 01:16:23;;;;;;;19.30;14.10;;;10.80;99.90;;;;;;5070502;28;20076;-59
2022/06/22 01:18:59;;;;;;;37.33;16.95;;;10.60;99.90;;;;;;5051423;28;20531;-59
2022/06/22 01:21:35;;;;;;;32.00;13.00;;;10.50;99.90;;;;;;5069657;28;20044;-59
2022/06/22 01:24:30;;;;;;;71.95;13.93;;;10.60;99.90;;;;;;5052761;28;20126;-59
2022/06/22 01:27:39;;;;;;;18.00;14.60;;;10.50;99.90;;;;;;5063776;28;20096;-59
2022/06/22 01:30:22;;;;;;;15.10;11.83;;;10.50;99.90;;;;;;5059355;28;20384;-59
2022/06/22 01:32:49;;;;;;;14.38;11.35;;;10.40;99.90;;;;;;5077645;28;20029;-59
2022/06/22 01:35:20;;;;;;;16.92;12.07;;;10.30;99.90;;;;;;5050336;28;20044;-59
2022/06/22 01:37:46;;;;;;;15.35;11.30;;;10.40;99.90;;;;;;5053024;28;20147;-59
2022/06/22 01:40:14;;;;;;;15.15;10.73;;;10.40;99.90;;;;;;5065103;28;20048;-59
2022/06/22 01:42:59;;;;;;;12.40;10.25;;;10.30;99.90;;;;;;5062196;28;20112;-59
2022/06/22 01:45:45;;;;;;;15.50;9.88;;;10.10;99.90;;;;;;5055807;28;20055;-59
2022/06/22 01:48:24;;;;;;;14.93;9.60;;;10.20;99.90;;;;;;5066723;28;20049;-59
2022/06/22 01:51:04;;;;;;;12.10;10.05;;;10.10;99.90;;;;;;5043087;28;20045;-59
2022/06/22 01:53:36;;;;;;;11.25;9.85;;;9.90;99.90;;;;;;5052544;28;20049;-59
2022/06/22 01:56:23;;;;;;;58.00;11.90;;;10.10;99.90;;;;;;5033959;28;20043;-59
2022/06/22 01:59:09;;;;;;;47.10;14.45;;;10.00;99.90;;;;;;5063766;28;20048;-59
2022/06/22 02:02:08;;;;;;;30.65;13.18;;;9.80;99.90;;;;;;5079576;28;20127;-59
2022/06/22 02:04:49;;;;;;;43.47;12.52;;;9.70;99.90;;;;;;5003069;28;20066;-59
2022/06/22 02:10:30;;;;;;;29.60;7.72;;;9.90;99.90;;;;;;5003152;28;20057;-59
2022/06/22 02:13:28;;;;;;;24.55;9.52;;;9.90;99.90;;;;;;5001804;28;20542;-59
2022/06/22 02:16:19;;;;;;;54.65;12.57;;;9.90;99.90;;;;;;4997004;28;20054;-59
2022/06/22 02:18:51;;;;;;;134.52;18.13;;;9.90;99.90;;;;;;4994178;28;20105;-59
2022/06/22 02:21:36;;;;;;;21.30;14.70;;;9.80;99.90;;;;;;4986853;28;20585;-59
2022/06/22 02:24:09;;;;;;;113.95;15.55;;;9.80;99.90;;;;;;4992321;28;20073;-59
2022/06/22 02:26:46;;;;;;;152.88;17.77;;;9.90;99.90;;;;;;4986424;28;20046;-59
2022/06/22 02:29:15;;;;;;;93.05;15.98;;;9.80;99.90;;;;;;5007430;28;20089;-59
2022/06/22 02:31:41;;;;;;;143.70;15.75;;;9.70;99.90;;;;;;5003575;28;20041;-59
2022/06/22 02:34:07;;;;;;;181.77;16.42;;;9.70;99.90;;;;;;5021789;28;20137;-59
2022/06/22 02:36:38;;;;;;;139.52;14.77;;;9.70;99.90;;;;;;4994432;28;20042;-59
2022/06/22 02:39:06;;;;;;;137.75;15.27;;;9.50;99.90;;;;;;5002860;28;20050;-59
2022/06/22 02:44:33;;;;;;;116.47;14.52;;;9.70;99.90;;;;;;5070766;28;20594;-59
2022/06/22 02:47:19;;;;;;;132.88;14.63;;;9.60;99.90;;;;;;5046327;28;20049;-59
2022/06/22 02:50:26;;;;;;;167.98;16.80;;;9.90;99.90;;;;;;5039253;28;20049;-59
2022/06/22 02:52:55;;;;;;;114.47;14.50;;;9.50;99.90;;;;;;5011983;28;20047;-60
2022/06/22 02:55:25;;;;;;;229.97;20.87;;;9.50;99.90;;;;;;4982240;28;20049;-59
2022/06/22 02:57:51;;;;;;;356.30;24.52;;;9.50;99.90;;;;;;5005047;28;20133;-59
2022/06/22 03:00:19;;;;;;;245.55;21.20;;;9.50;99.90;;;;;;5007586;28;20087;-59
2022/06/22 03:02:47;;;;;;;196.98;18.45;;;9.20;99.90;;;;;;5006706;28;20072;-59
2022/06/22 03:05:14;;;;;;;134.80;16.75;;;9.10;99.90;;;;;;5009997;28;20066;-59
2022/06/22 03:07:44;;;;;;;145.98;17.60;;;9.20;99.90;;;;;;4993231;28;20054;-60
2022/06/22 03:10:21;;;;;;;131.73;17.65;;;9.30;99.90;;;;;;4991731;28;20069;-62
2022/06/22 03:12:47;;;;;;;116.32;17.40;;;9.30;99.90;;;;;;5007014;28;20069;-59
2022/06/22 03:15:17;;;;;;;121.07;16.67;;;9.40;99.90;;;;;;5008037;28;20050;-59
2022/06/22 03:17:43;;;;;;;123.75;15.98;;;9.40;99.90;;;;;;5007231;28;20662;-59
2022/06/22 03:20:14;;;;;;;96.13;13.68;;;9.40;99.90;;;;;;5009657;28;20065;-59
2022/06/22 03:22:43;;;;;;;103.20;12.40;;;9.40;99.90;;;;;;5007298;28;20069;-59
2022/06/22 03:25:15;;;;;;;49.43;12.60;;;9.40;99.90;;;;;;5007175;28;20502;-59
2022/06/22 03:27:45;;;;;;;64.28;12.27;;;9.40;99.90;;;;;;5011542;28;20041;-59
2022/06/22 03:30:25;;;;;;;18.02;10.60;;;9.30;99.90;;;;;;5025845;28;20103;-59
2022/06/22 03:33:09;;;;;;;30.95;10.82;;;9.30;99.90;;;;;;5030380;28;20076;-59
2022/06/22 03:35:41;;;;;;;11.43;9.70;;;9.40;99.90;;;;;;5031409;28;20041;-59
2022/06/22 03:38:16;;;;;;;14.38;9.60;;;9.40;99.90;;;;;;5028335;28;20041;-59
2022/06/22 03:41:08;;;;;;;18.73;11.48;;;9.50;99.90;;;;;;5021928;28;20052;-59
2022/06/22 03:43:52;;;;;;;20.90;15.30;;;9.30;99.90;;;;;;5047613;28;20497;-59
2022/06/22 03:46:30;;;;;;;18.95;15.73;;;9.10;99.90;;;;;;5029212;28;20124;-59
2022/06/22 03:49:08;;;;;;;19.35;14.38;;;9.20;99.90;;;;;;5054319;28;20041;-59
2022/06/22 03:51:39;;;;;;;16.52;13.52;;;9.00;99.90;;;;;;5054446;28;20127;-59
2022/06/22 03:54:33;;;;;;;15.07;12.93;;;9.00;99.90;;;;;;5046609;28;20050;-59
2022/06/22 03:57:03;;;;;;;17.40;14.40;;;9.10;99.90;;;;;;5047399;28;20034;-59
2022/06/22 03:59:30;;;;;;;;;;;9.30;99.90;;;;;;5043907;28;20057;-59
2022/06/22 04:01:56;;;;;;;17.83;13.98;;;9.40;99.90;;;;;;5045490;28;19929;-59
2022/06/22 04:04:24;;;;;;;16.52;13.52;;;9.40;99.90;;;;;;5050002;28;20097;-59
2022/06/22 04:06:53;;;;;;;17.33;13.80;;;9.40;99.90;;;;;;5026085;28;20072;-59
2022/06/22 04:09:28;;;;;;;28.42;16.45;;;9.50;99.90;;;;;;5030327;28;20064;-59
2022/06/22 04:12:03;;;;;;;37.83;15.07;;;9.60;99.90;;;;;;5046658;28;20041;-59
2022/06/22 04:14:47;;;;;;;29.13;12.65;;;9.80;99.90;;;;;;5042047;28;20089;-60
2022/06/22 04:17:29;;;;;;;21.70;11.77;;;10.00;99.90;;;;;;5053401;28;20049;-60
2022/06/22 04:20:10;;;;;;;24.52;11.27;;;10.20;99.90;;;;;;5035565;28;20045;-60
2022/06/22 04:22:41;;;;;;;15.18;10.73;;;10.50;99.90;;;;;;5025483;28;20057;-60
2022/06/22 04:25:18;;;;;;;16.65;9.68;;;10.50;99.90;;;;;;5016211;28;20072;-60
2022/06/22 04:27:48;;;;;;;14.85;9.57;;;10.80;99.90;;;;;;5003408;28;20046;-60
2022/06/22 04:30:20;;;;;;;11.23;9.13;;;10.90;99.90;;;;;;5019852;28;20045;-60
2022/06/22 04:32:52;;;;;;;18.30;10.27;;;10.90;99.90;;;;;;5009901;28;20535;-60
2022/06/22 04:35:27;;;;;;;12.45;9.73;;;11.00;99.90;;;;;;5028252;28;20153;-60
2022/06/22 04:38:04;;;;;;;18.55;9.48;;;11.10;99.90;;;;;;5010159;28;20052;-59
2022/06/22 04:40:40;;;;;;;12.68;8.77;;;11.10;99.90;;;;;;5010230;28;20077;-59
2022/06/22 04:43:08;;;;;;;17.50;9.18;;;11.20;99.90;;;;;;5024030;28;20104;-59
2022/06/22 04:45:38;;;;;;;19.70;8.82;;;11.30;99.90;;;;;;5021321;28;20053;-59
2022/06/22 04:48:19;;;;;;;13.32;7.85;;;11.30;99.90;;;;;;5026163;28;20041;-60
2022/06/22 04:50:49;;;;;;;13.10;8.32;;;11.30;99.90;;;;;;4997876;28;20538;-59
2022/06/22 04:53:56;;;;;;;14.98;9.18;;;11.40;99.90;;;;;;5005017;28;20682;-59
2022/06/22 04:56:37;;;;;;;8.45;7.65;;;11.30;99.90;;;;;;5002051;28;20068;-60
2022/06/22 04:59:06;;;;;;;9.30;8.10;;;11.50;99.90;;;;;;5008113;28;20126;-59
2022/06/22 05:01:40;;;;;;;10.25;7.82;;;11.40;99.90;;;;;;5021503;28;20069;-59
2022/06/22 05:04:39;;;;;;;10.38;9.27;;;11.50;99.90;;;;;;5015858;28;20065;-59
2022/06/22 05:07:28;;;;;;;12.32;10.32;;;11.50;99.90;;;;;;5026386;28;20049;-59
2022/06/22 05:10:12;;;;;;;11.95;10.75;;;11.60;99.90;;;;;;5017541;28;20180;-59
2022/06/22 05:13:01;;;;;;;12.50;10.57;;;11.60;99.90;;;;;;5019768;28;20813;-60
2022/06/22 05:15:33;;;;;;;13.00;11.07;;;11.70;99.90;;;;;;4997176;28;20660;-60
2022/06/22 05:18:01;;;;;;;15.25;11.43;;;11.60;99.90;;;;;;5020391;28;20104;-60
2022/06/22 05:20:33;;;;;;;16.60;11.85;;;11.50;99.90;;;;;;5011963;28;20050;-59
2022/06/22 05:23:01;;;;;;;15.13;13.32;;;11.60;99.90;;;;;;4997683;28;20414;-59
2022/06/22 05:25:28;;;;;;;23.15;15.25;;;11.50;99.90;;;;;;4995104;28;20192;-60
2022/06/22 05:27:59;;;;;;;18.98;14.73;;;11.60;99.90;;;;;;5008221;28;20097;-60
2022/06/22 05:30:25;;;;;;;22.10;15.85;;;11.80;99.90;;;;;;5000137;28;20054;-61
2022/06/22 05:32:55;;;;;;;21.73;15.95;;;11.70;99.90;;;;;;5010186;28;20055;-61
2022/06/22 05:35:33;;;;;;;25.73;16.42;;;11.90;99.90;;;;;;4992969;28;20063;-61
2022/06/22 05:38:02;;;;;;;22.98;17.05;;;12.00;99.90;;;;;;5008208;28;20046;-63
2022/06/22 05:40:31;;;;;;;24.65;18.02;;;12.00;99.90;;;;;;5005203;28;20057;-64
2022/06/22 05:42:58;;;;;;;29.55;19.60;;;12.00;99.90;;;;;;5018195;28;20104;-64
2022/06/22 05:45:26;;;;;;;36.78;22.55;;;12.20;99.90;;;;;;5026818;28;20430;-65
2022/06/22 05:47:53;;;;;;;28.52;20.25;;;12.20;99.90;;;;;;5019694;28;20372;-65
2022/06/22 05:50:40;;;;;;;27.13;20.63;;;12.40;99.90;;;;;;5027676;28;20199;-61
2022/06/22 05:53:26;;;;;;;31.92;21.25;;;12.40;99.90;;;;;;5037843;28;20041;-61
2022/06/22 05:56:13;;;;;;;28.35;20.40;;;12.50;99.90;;;;;;4989194;28;20312;-61
2022/06/22 05:59:00;;;;;;;28.52;19.85;;;12.50;99.90;;;;;;5019751;28;20084;-61
2022/06/22 06:02:09;;;;;;;26.98;19.58;;;12.50;99.90;;;;;;5018963;28;20050;-61
2022/06/22 06:05:05;;;;;;;23.70;17.45;;;12.60;99.90;;;;;;5013316;28;20053;-61
2022/06/22 06:07:55;;;;;;;23.38;18.42;;;12.70;99.90;;;;;;5014520;28;20112;-61
2022/06/22 06:10:31;;;;;;;;;;;12.70;99.90;;;;;;5002007;28;20057;-61
2022/06/22 06:13:02;;;;;;;26.83;18.08;;;12.80;99.90;;;;;;5021048;28;19921;-61
2022/06/22 06:15:36;;;;;;;24.52;18.15;;;13.00;99.90;;;;;;5009560;28;20133;-61
2022/06/22 06:18:03;;;;;;;26.27;16.92;;;13.00;99.90;;;;;;5018507;28;20108;-62
2022/06/22 06:20:43;;;;;;;20.48;15.60;;;13.10;99.90;;;;;;5017118;28;20061;-61
2022/06/22 06:23:26;;;;;;;24.20;17.83;;;13.20;99.90;;;;;;5022478;28;20083;-61
2022/06/22 06:29:10;;;;;;;17.77;13.55;;;13.60;99.90;;;;;;5010401;28;20069;-61
2022/06/22 06:31:58;;;;;;;19.58;15.52;;;13.60;99.90;;;;;;5020170;28;20056;-61
2022/06/22 06:34:33;;;;;;;20.75;15.32;;;13.60;99.90;;;;;;5008505;28;20061;-61
2022/06/22 06:37:21;;;;;;;21.73;14.68;;;13.60;99.90;;;;;;5033308;28;20045;-61
2022/06/22 06:39:52;;;;;;;18.13;13.25;;;13.80;99.90;;;;;;5017810;28;20056;-61
2022/06/22 06:42:24;;;;;;;13.75;10.95;;;13.80;99.90;;;;;;5017220;28;20049;-61
2022/06/22 06:44:53;;;;;;;14.45;11.48;;;13.90;99.90;;;;;;5007953;28;20060;-61
2022/06/22 06:47:26;;;;;;;17.60;11.82;;;14.00;99.90;;;;;;5018611;28;20049;-61
2022/06/22 06:49:55;;;;;;;18.30;11.18;;;14.10;99.90;;;;;;5029940;28;20337;-61
2022/06/22 06:52:28;;;;;;;15.38;10.77;;;14.20;99.90;;;;;;5036649;28;20041;-61
2022/06/22 06:54:59;;;;;;;12.18;9.25;;;14.30;99.90;;;;;;5010284;28;20117;-61
2022/06/22 06:57:25;;;;;;;11.88;9.93;;;14.30;99.90;;;;;;5033037;28;20041;-61
2022/06/22 06:59:55;;;;;;;13.50;9.25;;;14.40;99.90;;;;;;5004172;28;20052;-61
2022/06/22 07:02:27;;;;;;;12.80;9.23;;;14.50;99.90;;;;;;5015598;28;20088;-60
2022/06/22 07:04:52;;;;;;;9.55;7.60;;;14.50;99.90;;;;;;5006104;28;20061;-61
2022/06/22 07:07:32;;;;;;;13.63;8.98;;;14.60;99.90;;;;;;5002269;28;20050;-61
2022/06/22 07:10:03;;;;;;;13.18;10.85;;;14.70;99.90;;;;;;5013341;28;20044;-61
2022/06/22 07:12:45;;;;;;;13.80;9.57;;;14.90;99.90;;;;;;5031529;28;20675;-61
2022/06/22 07:15:18;;;;;;;10.80;9.18;;;14.90;99.90;;;;;;5028039;28;20056;-61
2022/06/22 07:17:45;;;;;;;12.98;10.93;;;14.90;99.90;;;;;;5037929;28;20033;-61
2022/06/22 07:20:42;;;;;;;17.95;10.05;;;15.10;99.90;;;;;;5027901;28;20042;-61
2022/06/22 07:23:28;;;;;;;14.45;8.57;;;15.10;99.90;;;;;;5026449;28;20152;-61
2022/06/22 07:25:59;;;;;;;10.80;7.78;;;15.20;99.90;;;;;;5043143;28;20114;-61
2022/06/22 07:28:33;;;;;;;9.95;8.40;;;15.40;99.90;;;;;;5055681;28;20055;-61
2022/06/22 07:31:15;;;;;;;13.73;7.38;;;15.40;99.90;;;;;;5012165;28;20052;-61
2022/06/22 07:33:53;;;;;;;17.42;10.57;;;15.40;99.90;;;;;;5031897;28;20075;-62
2022/06/22 07:36:37;;;;;;;11.00;6.13;;;15.50;99.90;;;;;;5040837;28;20441;-61
2022/06/22 07:39:19;;;;;;;10.98;7.20;;;15.50;99.90;;;;;;5049012;28;20203;-61
2022/06/22 07:41:45;;;;;;;10.60;6.95;;;15.60;99.90;;;;;;5037803;28;20049;-63
2022/06/22 07:44:19;;;;;;;13.80;7.75;;;15.60;99.90;;;;;;5050546;28;20064;-61
2022/06/22 07:47:09;;;;;;;8.57;5.80;;;15.70;99.90;;;;;;5043445;28;20067;-62
2022/06/22 07:49:42;;;;;;;12.32;5.95;;;15.70;99.90;;;;;;5030677;28;20572;-61
2022/06/22 07:52:14;;;;;;;11.02;6.18;;;15.80;99.90;;;;;;5038002;28;20053;-61
2022/06/22 07:54:47;;;;;;;10.52;6.47;;;15.90;99.90;;;;;;5030894;28;20049;-60
2022/06/22 07:57:29;;;;;;;10.63;5.60;;;15.90;99.90;;;;;;5058347;28;20048;-61
2022/06/22 07:59:57;;;;;;;8.10;5.22;;;16.00;99.90;;;;;;5030140;28;20045;-60
2022/06/22 08:02:32;;;;;;;9.93;5.20;;;16.00;99.90;;;;;;5041302;28;20053;-61
2022/06/22 08:05:11;;;;;;;8.15;5.80;;;16.10;99.90;;;;;;5029089;28;20075;-61
2022/06/22 08:07:58;;;;;;;8.07;5.45;;;16.10;99.90;;;;;;5034625;28;20079;-61
2022/06/22 08:10:36;;;;;;;10.40;5.78;;;16.30;99.90;;;;;;5022497;28;20103;-61
2022/06/22 08:13:31;;;;;;;6.93;4.95;;;16.30;99.90;;;;;;5021123;28;20273;-61
2022/06/22 08:16:04;;;;;;;7.80;4.85;;;16.50;99.90;;;;;;5026444;28;20120;-61
2022/06/22 08:18:31;;;;;;;7.72;4.90;;;16.50;99.90;;;;;;5015309;28;20041;-61
2022/06/22 08:20:57;;;;;;;8.02;5.18;;;16.50;99.90;;;;;;5037839;28;20088;-61
2022/06/22 08:23:34;;;;;;;7.80;5.05;;;16.60;99.90;;;;;;4992953;28;20061;-61
2022/06/22 08:26:03;;;;;;;10.65;6.20;;;16.70;99.90;;;;;;5026558;28;20053;-61
2022/06/22 08:28:33;;;;;;;12.40;5.90;;;16.90;99.90;;;;;;5039803;28;20044;-61
2022/06/22 08:30:58;;;;;;;;;;;16.90;99.90;;;;;;5027188;28;20055;-61
2022/06/22 08:33:56;;;;;;;9.18;5.68;;;16.80;99.90;;;;;;5020257;28;19925;-61
2022/06/22 08:36:37;;;;;;;7.60;4.80;;;16.80;99.90;;;;;;5010227;28;20294;-61
2022/06/22 08:39:32;;;;;;;10.73;5.85;;;16.80;99.90;;;;;;5025740;28;20110;-61
2022/06/22 08:42:15;;;;;;;7.68;4.97;;;17.00;99.90;;;;;;5008631;28;20057;-61
2022/06/22 08:45:11;;;;;;;9.00;5.05;;;17.20;99.90;;;;;;5005596;28;20128;-61
2022/06/22 08:48:04;;;;;;;7.43;5.40;;;17.20;99.90;;;;;;4998773;28;20073;-61
2022/06/22 08:51:07;;;;;;;7.50;5.60;;;17.20;99.90;;;;;;5003726;28;20053;-61
2022/06/22 08:53:57;;;;;;;10.80;5.32;;;17.50;99.90;;;;;;5016499;28;20045;-61
2022/06/22 08:56:54;;;;;;;10.38;5.30;;;17.70;99.90;;;;;;5022311;28;20041;-61
2022/06/22 08:59:20;;;;;;;9.10;5.60;;;17.80;99.90;;;;;;5026699;28;20107;-62
2022/06/22 09:02:01;;;;;;;7.97;5.38;;;17.80;99.90;;;;;;5022786;28;20088;-62
2022/06/22 09:05:00;;;;;;;8.57;4.60;;;17.80;99.90;;;;;;5008623;28;20056;-62
2022/06/22 09:07:52;;;;;;;10.55;5.47;;;17.90;99.90;;;;;;5002643;28;20105;-63
2022/06/22 09:10:20;;;;;;;10.65;5.15;;;17.80;99.90;;;;;;5002473;28;20107;-62
2022/06/22 09:12:52;;;;;;;8.95;4.88;;;17.80;99.90;;;;;;5006001;28;20065;-64
2022/06/22 09:15:35;;;;;;;6.95;4.55;;;17.90;99.90;;;;;;4995174;28;20053;-63
2022/06/22 09:18:16;;;;;;;8.93;4.95;;;17.90;99.90;;;;;;5017536;28;20077;-62
2022/06/22 09:20:55;;;;;;;7.72;5.47;;;18.00;99.90;;;;;;5009945;28;20041;-62
2022/06/22 09:23:20;;;;;;;7.70;5.00;;;18.20;99.90;;;;;;5005822;28;20136;-62
2022/06/22 09:26:03;;;;;;;7.70;4.00;;;18.20;99.90;;;;;;5012738;28;20092;-62
2022/06/22 09:28:44;;;;;;;9.18;5.28;;;18.20;99.90;;;;;;5012911;28;20115;-63
2022/06/22 09:31:44;;;;;;;6.78;4.47;;;18.50;99.90;;;;;;5010005;28;20045;-62
2022/06/22 09:34:33;;;;;;;11.85;6.00;;;18.40;99.90;;;;;;5013180;28;20063;-65
2022/06/22 09:37:05;;;;;;;;;;;18.50;99.90;;;;;;5035755;28;20063;-62
2022/06/22 09:39:52;;;;;;;9.73;6.65;;;18.40;99.90;;;;;;4992310;28;19922;-62
2022/06/22 09:42:18;;;;;;;11.38;7.07;;;18.50;99.90;;;;;;5005083;28;20057;-62
2022/06/22 09:45:20;;;;;;;16.58;6.90;;;18.60;99.90;;;;;;4990241;28;20053;-62
2022/06/22 09:47:49;;;;;;;9.38;5.80;;;18.70;99.90;;;;;;5017817;28;20055;-62
2022/06/22 09:50:28;;;;;;;6.82;5.00;;;18.70;99.90;;;;;;5011223;28;20053;-62
2022/06/22 09:53:31;;;;;;;10.30;5.78;;;18.70;99.90;;;;;;5012935;28;20045;-63
2022/06/22 09:56:22;;;;;;;9.63;5.78;;;18.70;99.90;;;;;;5025500;28;20423;-62
2022/06/22 09:59:12;;;;;;;11.18;5.95;;;18.80;99.90;;;;;;5018235;28;20053;-62
2022/06/22 10:02:09;;;;;;;11.25;6.07;;;18.80;99.90;;;;;;5025962;28;20081;-62
2022/06/22 10:05:23;;;;;;;6.25;5.03;;;18.90;99.90;;;;;;5008833;28;20055;-62
2022/06/22 10:07:59;;;;;;;6.72;4.55;;;19.00;99.90;;;;;;5001613;28;20561;-62
2022/06/22 10:10:40;;;;;;;6.55;4.65;;;19.10;99.90;;;;;;5027004;28;20344;-62
2022/06/22 10:13:29;;;;;;;6.70;3.90;;;19.20;99.90;;;;;;5055245;28;20056;-65
2022/06/22 10:16:30;;;;;;;9.95;4.72;;;19.20;99.90;;;;;;5005861;28;20068;-64
2022/06/22 10:19:29;;;;;;;8.52;4.32;;;19.20;99.90;;;;;;5047643;28;20044;-64
2022/06/22 10:22:01;;;;;;;6.45;4.13;;;19.10;99.90;;;;;;5007294;28;20048;-64
2022/06/22 10:25:03;;;;;;;9.30;4.22;;;19.20;99.90;;;;;;5010715;28;20053;-64
2022/06/22 10:27:34;;;;;;;7.40;3.50;;;19.30;99.90;;;;;;5053414;28;20104;-65
2022/06/22 10:30:22;;;;;;;5.03;3.42;;;19.30;99.90;;;;;;5042241;28;20053;-61
2022/06/22 10:33:15;;;;;;;8.23;4.50;;;19.50;99.90;;;;;;5039235;28;20484;-61
2022/06/22 10:35:57;;;;;;;8.00;4.60;;;19.60;99.90;;;;;;5024602;28;20565;-62
2022/06/22 10:38:49;;;;;;;9.63;5.32;;;19.70;99.90;;;;;;5038032;28;20147;-62
2022/06/22 10:47:50;;;;;;;6.63;4.40;;;19.70;99.90;;;;;;5007791;28;20044;-62
2022/06/22 10:50:40;;;;;;;7.70;4.97;;;19.70;99.90;;;;;;5042461;28;20132;-62
2022/06/22 10:53:39;;;;;;;6.10;4.13;;;19.70;99.90;;;;;;5037281;28;20305;-62
2022/06/22 10:56:35;;;;;;;6.47;4.30;;;19.90;99.90;;;;;;5046089;28;20053;-62
2022/06/22 10:59:12;;;;;;;7.82;4.95;;;20.00;99.90;;;;;;5038590;28;20036;-62
2022/06/22 11:02:10;;;;;;;8.65;3.90;;;20.10;99.90;;;;;;5041476;28;20052;-62
2022/06/22 11:04:48;;;;;;;6.32;4.10;;;20.10;99.90;;;;;;5027809;28;20052;-62
2022/06/22 11:07:43;;;;;;;7.00;4.70;;;20.10;99.90;;;;;;5050875;28;20076;-62
2022/06/22 11:10:20;;;;;;;7.45;4.32;;;20.30;99.90;;;;;;4966175;28;20467;-61
2022/06/22 11:13:04;;;;;;;9.35;4.88;;;20.30;99.90;;;;;;4979815;28;20061;-61
2022/06/22 11:16:14;;;;;;;5.82;4.15;;;20.40;99.90;;;;;;4989812;28;20042;-61
2022/06/22 11:18:59;;;;;;;8.90;4.28;;;20.50;99.90;;;;;;4973769;28;20066;-61
2022/06/22 11:21:46;;;;;;;8.15;4.00;;;20.70;99.90;;;;;;4950343;28;20061;-62
2022/06/22 11:24:54;;;;;;;8.52;4.45;;;20.90;99.90;;;;;;4955915;28;20126;-62
2022/06/22 11:30:51;;;;;;;6.40;4.80;;;21.00;99.90;;;;;;4963390;28;20054;-62
2022/06/22 11:33:26;;;;;;;5.38;4.00;;;21.10;99.90;;;;;;4957348;28;20277;-62
2022/06/22 11:36:13;;;;;;;9.00;5.43;;;21.00;99.90;;;;;;4961442;28;20058;-62
2022/06/22 11:38:44;;;;;;;9.18;4.85;;;21.10;99.90;;;;;;4977314;28;20324;-62
2022/06/22 11:41:18;;;;;;;7.18;4.88;;;21.10;99.90;;;;;;4964450;28;20042;-62
2022/06/22 11:44:08;;;;;;;10.52;5.53;;;21.30;99.90;;;;;;4979953;28;20058;-62
2022/06/22 11:46:42;;;;;;;6.70;4.00;;;21.20;99.90;;;;;;4976779;28;20791;-62
2022/06/22 11:49:38;;;;;;;6.93;5.10;;;21.40;99.90;;;;;;5037321;28;20057;-62
2022/06/22 11:52:04;;;;;;;6.43;4.80;;;21.40;99.90;;;;;;4993700;28;20050;-62
2022/06/22 11:55:08;;;;;;;8.00;4.72;;;21.40;99.90;;;;;;5020045;28;20115;-62
2022/06/22 11:57:58;;;;;;;9.38;4.72;;;21.40;99.90;;;;;;5016755;28;20509;-61
2022/06/22 12:01:01;;;;;;;6.88;4.47;;;21.50;99.90;;;;;;5025056;28;20056;-61
2022/06/22 12:03:49;;;;;;;7.13;4.15;;;21.60;99.90;;;;;;5022819;28;20049;-62
2022/06/22 12:06:27;;;;;;;6.88;3.92;;;21.60;99.90;;;;;;5024499;28;20053;-62
2022/06/22 12:09:32;;;;;;;7.30;4.45;;;21.60;99.90;;;;;;5042110;28;20591;-62
2022/06/22 12:12:29;;;;;;;8.68;3.75;;;21.80;99.90;;;;;;5009804;28;20116;-62
2022/06/22 12:15:10;;;;;;;7.25;3.80;;;21.90;99.90;;;;;;5007940;28;20045;-62
2022/06/22 12:17:42;;;;;;;7.43;4.25;;;21.90;99.90;;;;;;5051363;28;20084;-62
2022/06/22 12:20:20;;;;;;;6.55;3.90;;;22.20;99.90;;;;;;5030982;28;20091;-62
2022/06/22 12:23:00;;;;;;;10.45;4.28;;;22.30;99.90;;;;;;5039691;28;20056;-62
2022/06/22 12:25:57;;;;;;;9.68;4.70;;;22.20;99.90;;;;;;5022486;28;20049;-62
2022/06/22 12:28:57;;;;;;;6.63;4.35;;;22.30;99.90;;;;;;5040837;28;20107;-62
2022/06/22 12:31:27;;;;;;;10.40;4.45;;;22.30;99.90;;;;;;5047826;28;20063;-62
2022/06/22 12:34:00;;;;;;;;;;;22.00;99.90;;;;;;5064390;28;20375;-62
2022/06/22 12:36:37;;;;;;;7.22;4.22;;;22.10;99.90;;;;;;5036070;28;19921;-62
2022/06/22 12:39:10;;;;;;;6.32;3.83;;;22.40;99.90;;;;;;5044689;28;20074;-62
2022/06/22 12:41:54;;;;;;;7.60;4.25;;;22.70;99.90;;;;;;5028113;28;20099;-62
2022/06/22 12:44:58;;;;;;;4.28;3.88;;;22.90;99.90;;;;;;5042350;28;20053;-62
2022/06/22 12:47:42;;;;;;;6.05;4.05;;;23.20;99.90;;;;;;5011691;28;20386;-62
2022/06/22 12:50:36;;;;;;;6.18;4.18;;;23.30;99.90;;;;;;5044697;28;20120;-62
2022/06/22 12:53:10;;;;;;;9.57;5.03;;;23.40;99.90;;;;;;5045737;28;20045;-61
2022/06/22 12:55:51;;;;;;;8.45;4.53;;;23.10;99.90;;;;;;5050491;28;20618;-62
2022/06/22 12:58:22;;;;;;;8.25;4.40;;;23.20;99.90;;;;;;5041713;28;20061;-62
2022/06/22 13:00:48;;;;;;;6.60;3.80;;;23.40;99.90;;;;;;5023783;28;20110;-64
2022/06/22 13:03:23;;;;;;;8.40;4.75;;;23.50;99.90;;;;;;5044177;28;20037;-63
2022/06/22 13:05:51;;;;;;;5.60;3.40;;;23.60;99.90;;;;;;5024638;28;20124;-63
2022/06/22 13:08:26;;;;;;;5.88;3.75;;;23.80;99.90;;;;;;5018316;28;20065;-63
2022/06/22 13:10:59;;;;;;;10.82;4.82;;;23.90;99.90;;;;;;5025744;28;20041;-63
2022/06/22 13:13:36;;;;;;;7.38;4.45;;;24.00;99.90;;;;;;5003270;28;20072;-64
2022/06/22 13:16:15;;;;;;;7.00;4.22;;;24.10;99.90;;;;;;5009694;28;20151;-63
2022/06/22 13:18:49;;;;;;;9.13;4.35;;;24.20;99.90;;;;;;5020846;28;20046;-63
2022/06/22 13:21:55;;;;;;;6.90;4.20;;;24.50;99.90;;;;;;5022181;28;20148;-62
2022/06/22 13:24:32;;;;;;;8.73;4.55;;;24.60;99.90;;;;;;5017208;28;20053;-62
2022/06/22 13:27:35;;;;;;;8.35;4.30;;;24.80;99.90;;;;;;5033663;28;20054;-62
2022/06/22 13:30:11;;;;;;;6.22;3.83;;;25.10;99.90;;;;;;5004222;28;20041;-63
2022/06/22 13:32:37;;;;;;;6.07;4.10;;;25.60;99.90;;;;;;5016100;28;20092;-63
2022/06/22 13:35:10;;;;;;;7.38;3.65;;;26.00;99.90;;;;;;5007397;28;20053;-63
2022/06/22 13:37:42;;;;;;;6.70;3.80;;;26.60;99.40;;;;;;5011562;28;20223;-64
2022/06/22 13:40:26;;;;;;;6.90;3.30;;;27.10;98.10;;;;;;5026225;28;20140;-63
2022/06/22 13:43:21;;;;;;;6.90;3.40;;;27.80;97.70;;;;;;5017213;28;20099;-63
2022/06/22 13:46:17;;;;;;;11.25;4.38;;;28.50;97.30;;;;;;5008270;28;20063;-63
2022/06/22 13:49:11;;;;;;;5.15;3.50;;;29.00;96.00;;;;;;5011738;28;20052;-63
2022/06/22 13:51:51;;;;;;;7.47;3.85;;;29.40;94.30;;;;;;5017915;28;20418;-64
2022/06/22 13:55:01;;;;;;;5.75;3.28;;;29.80;89.60;;;;;;5037008;28;20057;-63
2022/06/22 13:57:44;;;;;;;7.78;4.68;;;29.70;86.20;;;;;;4964857;28;20050;-63
2022/06/22 14:00:18;;;;;;;5.43;3.90;;;30.20;82.50;;;;;;4935991;28;20082;-63
2022/06/22 14:02:58;;;;;;;9.18;3.80;;;30.60;84.10;;;;;;4965289;28;20509;-63